createdAt,value
2022-11-17T00:01:20.655Z,75552.25
2022-11-17T00:03:48.251Z,75556.38
2022-11-17T00:06:15.724Z,75544.03
2022-11-17T00:08:42.752Z,75531.72
2022-11-17T00:11:10.310Z,75523.50
2022-11-17T00:13:56.982Z,75539.94
2022-11-17T00:16:24.108Z,75546.09
2022-11-17T00:19:11.817Z,75539.94
2022-11-17T00:21:39.338Z,75544.03
2022-11-17T00:24:06.648Z,75535.81
2022-11-17T00:26:34.687Z,75535.81
2022-11-17T00:29:02.516Z,75527.59
2022-11-17T00:32:06.472Z,75527.59
2022-11-17T00:34:33.616Z,75539.94
2022-11-17T00:37:00.767Z,75539.94
2022-11-17T00:39:27.839Z,75535.81
2022-11-17T00:41:55.663Z,75533.75
2022-11-17T00:44:22.741Z,75523.50
2022-11-17T00:46:50.000Z,75527.59
2022-11-17T00:49:17.859Z,75515.25
2022-11-17T00:51:44.877Z,75515.25
2022-11-17T00:54:12.273Z,75515.25
2022-11-17T00:56:42.139Z,75498.81
2022-11-17T00:59:09.449Z,75507.03
2022-11-17T01:01:37.038Z,75513.22
2022-11-17T01:04:04.561Z,75515.25
2022-11-17T01:06:36.296Z,75515.25
2022-11-17T01:09:04.360Z,75502.94
2022-11-17T01:11:31.430Z,75502.94
2022-11-17T01:13:59.163Z,75494.72
2022-11-17T01:16:26.763Z,75494.72
2022-11-17T01:18:53.977Z,75486.50
2022-11-17T01:21:21.791Z,75482.38
2022-11-17T01:23:49.400Z,75488.56
2022-11-17T01:26:26.954Z,75482.38
2022-11-17T01:28:54.094Z,75484.44
2022-11-17T01:31:22.422Z,75484.44
2022-11-17T01:33:50.019Z,75486.50
2022-11-17T01:36:30.739Z,75490.59
2022-11-17T01:38:57.774Z,75480.34
2022-11-17T01:41:25.844Z,75478.28
2022-11-17T01:43:53.932Z,75470.06
2022-11-17T01:46:27.179Z,75459.78
2022-11-17T01:48:59.538Z,75459.78
2022-11-17T01:51:26.892Z,75453.63
2022-11-17T01:53:54.064Z,75461.84
2022-11-17T01:56:23.893Z,75457.72
2022-11-17T01:58:52.642Z,75457.72
2022-11-17T02:01:19.713Z,75455.66
2022-11-17T02:03:47.660Z,75431.00
2022-11-17T02:06:16.462Z,75437.19
2022-11-17T02:08:44.541Z,75449.50
2022-11-17T02:11:12.324Z,75445.41
2022-11-17T02:13:41.436Z,75445.41
2022-11-17T02:16:15.298Z,75445.41
2022-11-17T02:18:42.604Z,75445.41
2022-11-17T02:21:09.753Z,75439.22
2022-11-17T02:23:46.149Z,75433.06
2022-11-17T02:26:19.743Z,75428.97
2022-11-17T02:28:53.184Z,75433.06
2022-11-17T02:31:22.853Z,75433.06
2022-11-17T02:34:02.334Z,75424.84
2022-11-17T02:36:48.124Z,75428.97
2022-11-17T02:39:19.092Z,75420.72
2022-11-17T02:42:12.514Z,75420.72
2022-11-17T02:45:06.183Z,75426.91
2022-11-17T02:47:33.529Z,75424.84
2022-11-17T02:50:01.145Z,114926.56
2022-11-17T02:52:28.374Z,114926.56
2022-11-17T02:55:02.822Z,114926.56
2022-11-17T02:57:30.748Z,114926.56
2022-11-17T02:59:59.122Z,114926.56
2022-11-17T03:02:29.219Z,114926.56
2022-11-17T03:04:59.060Z,114926.56
2022-11-17T03:07:26.829Z,114926.56
2022-11-17T03:09:57.040Z,114926.56
2022-11-17T03:12:28.520Z,114926.56
2022-11-17T03:14:55.989Z,114926.56
2022-11-17T03:17:28.396Z,114926.56
2022-11-17T03:20:02.126Z,114926.56
2022-11-17T03:22:55.740Z,114926.56
2022-11-17T03:25:23.217Z,114926.56
2022-11-17T03:27:57.655Z,114926.56
2022-11-17T03:30:26.041Z,114926.56
2022-11-17T03:32:54.033Z,114926.56
2022-11-17T03:35:23.204Z,114926.56
2022-11-17T03:37:52.008Z,114926.56
2022-11-17T03:40:21.238Z,114926.56
2022-11-17T03:42:52.667Z,114926.56
2022-11-17T03:45:25.869Z,114926.56
2022-11-17T03:47:56.793Z,114926.56
2022-11-17T03:50:44.130Z,114926.56
2022-11-17T03:53:11.165Z,114926.56
2022-11-17T03:55:45.517Z,114926.56
2022-11-17T03:58:14.326Z,114926.56
2022-11-17T04:00:41.394Z,114926.56
2022-11-17T04:03:08.826Z,114926.56
2022-11-17T04:05:37.097Z,114926.56
2022-11-17T04:08:04.246Z,114926.56
2022-11-17T04:10:51.874Z,114926.56
2022-11-17T04:13:37.795Z,114926.56
2022-11-17T04:16:05.424Z,114926.56
2022-11-17T04:18:32.879Z,114926.56
2022-11-17T04:21:00.016Z,114926.56
2022-11-17T04:23:28.114Z,114926.56
2022-11-17T04:26:13.953Z,114926.56
2022-11-17T04:28:44.916Z,114926.56
2022-11-17T04:31:12.001Z,114926.56
2022-11-17T04:33:49.473Z,114926.56
2022-11-17T04:36:17.617Z,114926.56
2022-11-17T04:38:45.852Z,114926.56
2022-11-17T04:41:32.396Z,114926.56
2022-11-17T04:44:01.096Z,114926.56
2022-11-17T04:46:29.154Z,114926.56
2022-11-17T04:48:57.267Z,114926.56
2022-11-17T04:51:24.443Z,114926.56
2022-11-17T04:53:51.584Z,114926.56
2022-11-17T04:56:19.075Z,114926.56
2022-11-17T04:58:46.867Z,114926.56
2022-11-17T05:01:14.158Z,114926.56
2022-11-17T05:03:41.899Z,114926.56
2022-11-17T05:06:09.956Z,114926.56
2022-11-17T05:08:37.808Z,114926.56
2022-11-17T05:11:23.684Z,114926.56
2022-11-17T05:13:51.184Z,114926.56
2022-11-17T05:16:36.995Z,114926.56
2022-11-17T05:19:04.842Z,114926.56
2022-11-17T05:21:32.080Z,114926.56
2022-11-17T05:23:59.224Z,114926.56
2022-11-17T05:26:26.972Z,114926.56
2022-11-17T05:28:57.454Z,114926.56
2022-11-17T05:31:24.814Z,114926.56
2022-11-17T05:33:52.032Z,114926.56
2022-11-17T05:36:19.818Z,114926.56
2022-11-17T05:38:47.314Z,114926.56
2022-11-17T05:41:15.152Z,114926.56
2022-11-17T05:43:42.225Z,114926.56
2022-11-17T05:46:09.328Z,114926.56
2022-11-17T05:48:36.992Z,114926.56
2022-11-17T05:51:04.126Z,114926.56
2022-11-17T05:53:31.648Z,114926.56
2022-11-17T05:56:14.298Z,114926.56
2022-11-17T05:58:42.579Z,114926.56
2022-11-17T06:01:09.869Z,114926.56
2022-11-17T06:03:38.368Z,114926.56
2022-11-17T06:06:06.003Z,114926.56
2022-11-17T06:08:33.461Z,114926.56
2022-11-17T06:11:00.966Z,114926.56
2022-11-17T06:13:29.181Z,114926.56
2022-11-17T06:15:56.412Z,114926.56
2022-11-17T06:18:24.528Z,114926.56
2022-11-17T06:20:53.564Z,114926.56
2022-11-17T06:23:20.940Z,114926.56
2022-11-17T06:25:48.079Z,114926.56
2022-11-17T06:28:16.289Z,114926.56
2022-11-17T06:30:43.594Z,114926.56
2022-11-17T06:33:11.845Z,114926.56
2022-11-17T06:35:39.180Z,114926.56
2022-11-17T06:38:06.254Z,114926.56
2022-11-17T06:40:33.350Z,114926.56
2022-11-17T06:43:12.578Z,114926.56
2022-11-17T06:45:40.988Z,114926.56
2022-11-17T06:48:10.220Z,114926.56
2022-11-17T06:50:38.023Z,114926.56
2022-11-17T06:53:06.349Z,114926.56
2022-11-17T06:55:34.593Z,114926.56
2022-11-17T06:58:02.155Z,114926.56
2022-11-17T07:00:31.165Z,114926.56
2022-11-17T07:03:01.871Z,114926.56
2022-11-17T07:05:29.451Z,114926.56
2022-11-17T07:07:57.759Z,114926.56
2022-11-17T07:10:25.054Z,114926.56
2022-11-17T07:12:52.610Z,114926.56
2022-11-17T07:15:21.868Z,114926.56
2022-11-17T07:17:49.891Z,114926.56
2022-11-17T07:20:17.225Z,114926.56
2022-11-17T07:22:44.383Z,114926.56
2022-11-17T07:25:11.723Z,114926.56
2022-11-17T07:27:39.119Z,114926.56
2022-11-17T07:30:06.547Z,114926.56
2022-11-17T07:32:35.463Z,114926.56
2022-11-17T07:35:05.604Z,114926.56
2022-11-17T07:37:34.280Z,114926.56
2022-11-17T07:40:01.454Z,114926.56
2022-11-17T07:42:28.711Z,114926.56
2022-11-17T07:44:55.752Z,114926.56
2022-11-17T07:47:23.624Z,114926.56
2022-11-17T07:49:50.723Z,114926.56
2022-11-17T07:52:17.800Z,114926.56
2022-11-17T07:54:45.772Z,114926.56
2022-11-17T07:57:12.982Z,114926.56
2022-11-17T07:59:40.146Z,114926.56
2022-11-17T08:02:08.677Z,114926.56
2022-11-17T08:04:37.638Z,114926.56
2022-11-17T08:07:04.826Z,114926.56
2022-11-17T08:09:32.199Z,114926.56
2022-11-17T08:12:00.138Z,114926.56
2022-11-17T08:14:29.094Z,114926.56
2022-11-17T08:16:56.122Z,114926.56
2022-11-17T08:19:24.320Z,114926.56
2022-11-17T08:21:51.347Z,114926.56
2022-11-17T08:24:18.525Z,114926.56
2022-11-17T08:26:45.739Z,114926.56
2022-11-17T08:29:12.843Z,114926.56
2022-11-17T08:31:45.882Z,114926.56
2022-11-17T08:34:13.073Z,114926.56
2022-11-17T08:36:41.272Z,114926.56
2022-11-17T08:39:08.327Z,114926.56
2022-11-17T08:41:35.480Z,114926.56
2022-11-17T08:44:03.591Z,114926.56
2022-11-17T08:46:30.688Z,114926.56
2022-11-17T08:48:57.969Z,114926.56
2022-11-17T08:51:25.266Z,114926.56
2022-11-17T08:53:52.375Z,114926.56
2022-11-17T08:56:19.680Z,114926.56
2022-11-17T08:58:46.842Z,114926.56
2022-11-17T09:01:18.303Z,114926.56
2022-11-17T09:03:45.749Z,114926.56
2022-11-17T09:06:13.211Z,114926.56
2022-11-17T09:08:47.854Z,114926.56
2022-11-17T09:11:16.490Z,114926.56
2022-11-17T09:13:45.656Z,114926.56
2022-11-17T09:16:12.855Z,114926.56
2022-11-17T09:18:40.789Z,114926.56
2022-11-17T09:21:09.387Z,114926.56
2022-11-17T09:23:37.008Z,114926.56
2022-11-17T09:26:04.845Z,114926.56
2022-11-17T09:28:32.103Z,114926.56
2022-11-17T09:31:01.316Z,114926.56
2022-11-17T09:33:29.092Z,114926.56
2022-11-17T09:35:59.384Z,114926.56
2022-11-17T09:38:26.539Z,114926.56
2022-11-17T09:40:55.970Z,114926.56
2022-11-17T09:43:30.211Z,114926.56
2022-11-17T09:46:07.677Z,114926.56
2022-11-17T09:48:51.965Z,114926.56
2022-11-17T09:51:20.480Z,114926.56
2022-11-17T09:53:54.463Z,114926.56
2022-11-17T09:56:21.734Z,114926.56
2022-11-17T09:58:50.924Z,114926.56
2022-11-17T10:01:18.927Z,114926.56
2022-11-17T10:03:47.886Z,114926.56
2022-11-17T10:06:19.579Z,114926.56
2022-11-17T10:08:49.921Z,114926.56
2022-11-17T10:11:32.199Z,114926.56
2022-11-17T10:14:10.716Z,114926.56
2022-11-17T10:16:52.749Z,114926.56
2022-11-17T10:19:24.474Z,114926.56
2022-11-17T10:21:53.311Z,114926.56
2022-11-17T10:24:39.308Z,114926.56
2022-11-17T10:27:14.551Z,114926.56
2022-11-17T10:29:41.638Z,114926.56
2022-11-17T10:32:08.815Z,114926.56
2022-11-17T10:34:41.105Z,114926.56
2022-11-17T10:37:15.276Z,114926.56
2022-11-17T10:39:42.774Z,114926.56
2022-11-17T10:42:15.968Z,114926.56
2022-11-17T10:44:43.412Z,114926.56
2022-11-17T10:47:24.000Z,114926.56
2022-11-17T10:50:04.929Z,114926.56
2022-11-17T10:52:32.155Z,114926.56
2022-11-17T10:55:18.370Z,114926.56
2022-11-17T10:57:46.741Z,114926.56
2022-11-17T11:00:24.262Z,114926.56
2022-11-17T11:03:02.162Z,114926.56
2022-11-17T11:05:30.057Z,114926.56
2022-11-17T11:08:15.988Z,114926.56
2022-11-17T11:10:43.549Z,114926.56
2022-11-17T11:13:13.017Z,114926.56
2022-11-17T11:15:40.805Z,114926.56
2022-11-17T11:18:15.309Z,114926.56
2022-11-17T11:20:43.611Z,114926.56
2022-11-17T11:23:25.641Z,114926.56
2022-11-17T11:26:05.824Z,114926.56
2022-11-17T11:28:40.064Z,114926.56
2022-11-17T11:31:11.363Z,114926.56
2022-11-17T11:33:59.774Z,114926.56
2022-11-17T11:36:32.183Z,114926.56
2022-11-17T11:39:05.213Z,114926.56
2022-11-17T11:41:41.210Z,114926.56
2022-11-17T11:44:11.389Z,114926.56
2022-11-17T11:46:41.709Z,114926.56
2022-11-17T11:49:23.361Z,114926.56
2022-11-17T11:51:50.552Z,114926.56
2022-11-17T11:54:23.757Z,114926.56
2022-11-17T11:56:50.891Z,114926.56
2022-11-17T11:59:26.351Z,114926.56
2022-11-17T12:02:05.450Z,114926.56
2022-11-17T12:04:41.897Z,114926.56
2022-11-17T12:07:22.027Z,114926.56
2022-11-17T12:09:53.933Z,114926.56
2022-11-17T12:12:23.216Z,114926.56
2022-11-17T12:15:09.837Z,114926.56
2022-11-17T12:17:38.621Z,114926.56
2022-11-17T12:20:13.098Z,114926.56
2022-11-17T12:22:43.672Z,114926.56
2022-11-17T12:25:15.192Z,114926.56
2022-11-17T12:27:46.813Z,114926.56
2022-11-17T12:30:37.668Z,114926.56
2022-11-17T12:33:05.509Z,114926.56
2022-11-17T12:35:36.699Z,114926.56
2022-11-17T12:38:22.188Z,114926.56
2022-11-17T12:40:49.859Z,114926.56
2022-11-17T12:43:17.065Z,114926.56
2022-11-17T12:45:53.304Z,114926.56
2022-11-17T12:48:33.904Z,114926.56
2022-11-17T12:51:17.032Z,114926.56
2022-11-17T12:54:10.459Z,114926.56
2022-11-17T12:56:40.687Z,114926.56
2022-11-17T12:59:16.973Z,114926.56
2022-11-17T13:01:46.986Z,114926.56
2022-11-17T13:04:14.278Z,114926.56
2022-11-17T13:07:03.319Z,114926.56
2022-11-17T13:09:33.305Z,114926.56
2022-11-17T13:12:01.379Z,114926.56
2022-11-17T13:14:29.473Z,114926.56
2022-11-17T13:16:56.533Z,114926.56
2022-11-17T13:19:23.904Z,114926.56
2022-11-17T13:21:58.069Z,114926.56
2022-11-17T13:24:29.216Z,114926.56
2022-11-17T13:27:00.347Z,114926.56
2022-11-17T13:29:27.476Z,114926.56
2022-11-17T13:32:14.135Z,114926.56
2022-11-17T13:35:07.809Z,114926.56
2022-11-17T13:37:34.954Z,114926.56
2022-11-17T13:40:02.967Z,114926.56
2022-11-17T13:42:30.938Z,114926.56
2022-11-17T13:44:58.793Z,114926.56
2022-11-17T13:47:27.258Z,114926.56
2022-11-17T13:49:54.362Z,114926.56
2022-11-17T13:52:37.083Z,114926.56
2022-11-17T13:55:08.418Z,114926.56
2022-11-17T13:57:35.624Z,114926.56
2022-11-17T14:00:02.777Z,114926.56
2022-11-17T14:02:30.045Z,114926.56
2022-11-17T14:05:06.906Z,114926.56
2022-11-17T14:07:38.693Z,114926.56
2022-11-17T14:10:21.526Z,114926.56
2022-11-17T14:12:49.656Z,114926.56
2022-11-17T14:15:26.718Z,114926.56
2022-11-17T14:18:14.036Z,114926.56
2022-11-17T14:20:41.270Z,114926.56
2022-11-17T14:23:11.172Z,114926.56
2022-11-17T14:25:40.041Z,114926.56
2022-11-17T14:28:13.864Z,114926.56
2022-11-17T14:30:41.120Z,114926.56
2022-11-17T14:33:13.370Z,114926.56
2022-11-17T14:35:41.569Z,114926.56
2022-11-17T14:38:18.465Z,114926.56
2022-11-17T14:40:46.024Z,114926.56
2022-11-17T14:43:13.236Z,114926.56
2022-11-17T14:45:40.418Z,114926.56
2022-11-17T14:48:13.521Z,114926.56
2022-11-17T14:50:45.434Z,114926.56
2022-11-17T14:53:12.639Z,114926.56
2022-11-17T14:55:39.903Z,114926.56
2022-11-17T14:58:07.463Z,114926.56
2022-11-17T15:00:34.636Z,114926.56
2022-11-17T15:03:02.216Z,114926.56
2022-11-17T15:05:29.599Z,114926.56
2022-11-17T15:07:56.638Z,114926.56
2022-11-17T15:10:24.646Z,114926.56
2022-11-17T15:12:52.396Z,114926.56
2022-11-17T15:15:19.477Z,114926.56
2022-11-17T15:17:46.572Z,114926.56
2022-11-17T15:20:13.743Z,114926.56
2022-11-17T15:22:40.936Z,114926.56
2022-11-17T15:25:08.342Z,114926.56
2022-11-17T15:27:35.581Z,114926.56
2022-11-17T15:30:02.857Z,114926.56
2022-11-17T15:32:30.164Z,114926.56
2022-11-17T15:34:58.049Z,114926.56
2022-11-17T15:37:25.479Z,114926.56
2022-11-17T15:39:52.597Z,114926.56
2022-11-17T15:42:20.741Z,114926.56
2022-11-17T15:44:47.773Z,114926.56
2022-11-17T15:47:14.883Z,114926.56
2022-11-17T15:49:42.028Z,114926.56
2022-11-17T15:52:09.137Z,114926.56
2022-11-17T15:54:41.358Z,114926.56
2022-11-17T15:57:08.642Z,114926.56
2022-11-17T15:59:35.969Z,114926.56
2022-11-17T16:02:07.876Z,114926.56
2022-11-17T16:04:36.262Z,114926.56
2022-11-17T16:07:04.263Z,114926.56
2022-11-17T16:09:31.720Z,114926.56
2022-11-17T16:11:58.972Z,114926.56
2022-11-17T16:14:27.780Z,114926.56
2022-11-17T16:16:54.953Z,114926.56
2022-11-17T16:19:22.115Z,114926.56
2022-11-17T16:21:50.040Z,114926.56
2022-11-17T16:24:17.098Z,114926.56
2022-11-17T16:26:45.800Z,114926.56
2022-11-17T16:29:12.955Z,114926.56
2022-11-17T16:31:40.500Z,114926.56
2022-11-17T16:34:11.531Z,114926.56
2022-11-17T16:36:38.990Z,114926.56
2022-11-17T16:39:06.678Z,114926.56
2022-11-17T16:41:34.874Z,114926.56
2022-11-17T16:44:02.380Z,114926.56
2022-11-17T16:46:30.651Z,114926.56
2022-11-17T16:49:01.578Z,114926.56
2022-11-17T16:51:30.138Z,114926.56
2022-11-17T16:53:58.351Z,114926.56
2022-11-17T16:56:28.927Z,114926.56
2022-11-17T16:58:56.699Z,114926.56
2022-11-17T17:01:24.575Z,114926.56
2022-11-17T17:03:58.384Z,114926.56
2022-11-17T17:06:25.832Z,114926.56
2022-11-17T17:08:56.814Z,114926.56
2022-11-17T17:11:23.862Z,114926.56
2022-11-17T17:13:51.132Z,114926.56
2022-11-17T17:16:18.922Z,114926.56
2022-11-17T17:18:47.497Z,114926.56
2022-11-17T17:21:15.533Z,114926.56
2022-11-17T17:23:42.835Z,114926.56
2022-11-17T17:26:12.028Z,114926.56
2022-11-17T17:28:43.868Z,114926.56
2022-11-17T17:31:14.281Z,114926.56
2022-11-17T17:33:44.144Z,114926.56
2022-11-17T17:36:11.846Z,114926.56
2022-11-17T17:38:39.422Z,114926.56
2022-11-17T17:41:07.126Z,114926.56
2022-11-17T17:43:34.771Z,114926.56
2022-11-17T17:46:02.772Z,114926.56
2022-11-17T17:48:30.414Z,114926.56
2022-11-17T17:51:07.561Z,114926.56
2022-11-17T17:53:34.653Z,114926.56
2022-11-17T17:56:02.294Z,114926.56
2022-11-17T17:58:29.696Z,114926.56
2022-11-17T18:01:06.689Z,114926.56
2022-11-17T18:03:33.861Z,114926.56
2022-11-17T18:06:01.146Z,114926.56
2022-11-17T18:08:29.497Z,114926.56
2022-11-17T18:11:00.042Z,114926.56
2022-11-17T18:13:31.274Z,114926.56
2022-11-17T18:15:59.083Z,114926.56
2022-11-17T18:18:26.205Z,114926.56
2022-11-17T18:21:14.038Z,114926.56
2022-11-17T18:23:41.170Z,114926.56
2022-11-17T18:26:21.450Z,114926.56
2022-11-17T18:28:50.759Z,114926.56
2022-11-17T18:31:17.909Z,114926.56
2022-11-17T18:33:47.630Z,114926.56
2022-11-17T18:36:15.477Z,114926.56
2022-11-17T18:38:42.722Z,114926.56
2022-11-17T18:41:13.861Z,114926.56
2022-11-17T18:43:41.145Z,114926.56
2022-11-17T18:46:09.846Z,114926.56
2022-11-17T18:48:37.695Z,114926.56
2022-11-17T18:51:23.780Z,114926.56
2022-11-17T18:53:54.491Z,114926.56
2022-11-17T18:56:22.591Z,114926.56
2022-11-17T18:58:50.402Z,114926.56
2022-11-17T19:01:21.424Z,114926.56
2022-11-17T19:03:49.364Z,114926.56
2022-11-17T19:06:17.283Z,114926.56
2022-11-17T19:08:44.403Z,114926.56
2022-11-17T19:11:11.817Z,114926.56
2022-11-17T19:13:40.266Z,114926.56
2022-11-17T19:16:28.625Z,114926.56
2022-11-17T19:18:56.070Z,114926.56
2022-11-17T19:21:27.294Z,114926.56
2022-11-17T19:23:55.126Z,114926.56
2022-11-17T19:26:23.061Z,114926.56
2022-11-17T19:28:50.487Z,114926.56
2022-11-17T19:31:18.486Z,114926.56
2022-11-17T19:33:46.107Z,114926.56
2022-11-17T19:36:33.433Z,114926.56
2022-11-17T19:39:01.057Z,114926.56
2022-11-17T19:41:32.431Z,114926.56
2022-11-17T19:44:00.155Z,114926.56
2022-11-17T19:46:27.802Z,114926.56
2022-11-17T19:48:55.135Z,114926.56
2022-11-17T19:51:22.241Z,114926.56
2022-11-17T19:53:49.984Z,114926.56
2022-11-17T19:56:17.235Z,114926.56
2022-11-17T19:58:44.849Z,114926.56
2022-11-17T20:01:15.973Z,114926.56
2022-11-17T20:03:48.638Z,114926.56
2022-11-17T20:06:16.687Z,114926.56
2022-11-17T20:08:43.823Z,114926.56
2022-11-17T20:11:11.086Z,114926.56
2022-11-17T20:13:38.654Z,114926.56
2022-11-17T20:16:11.791Z,114926.56
2022-11-17T20:18:42.066Z,114926.56
2022-11-17T20:21:09.367Z,114926.56
2022-11-17T20:23:37.223Z,114926.56
2022-11-17T20:26:05.251Z,114926.56
2022-11-17T20:28:33.105Z,114926.56
2022-11-17T20:31:05.197Z,114926.56
2022-11-17T20:33:32.283Z,114926.56
2022-11-17T20:36:00.320Z,114926.56
2022-11-17T20:38:27.740Z,114926.56
2022-11-17T20:40:58.738Z,114926.56
2022-11-17T20:43:26.276Z,114926.56
2022-11-17T20:45:56.052Z,114926.56
2022-11-17T20:48:23.208Z,114926.56
2022-11-17T20:51:00.187Z,114926.56
2022-11-17T20:53:27.513Z,114926.56
2022-11-17T20:55:56.042Z,114926.56
2022-11-17T20:58:23.595Z,114926.56
2022-11-17T21:00:50.760Z,114926.56
2022-11-17T21:03:17.857Z,114926.56
2022-11-17T21:05:59.620Z,114926.56
2022-11-17T21:08:27.290Z,114926.56
2022-11-17T21:10:57.927Z,114926.56
2022-11-17T21:13:28.039Z,114926.56
2022-11-17T21:16:04.394Z,114926.56
2022-11-17T21:18:32.090Z,114926.56
2022-11-17T21:21:00.221Z,114926.56
2022-11-17T21:23:27.765Z,114926.56
2022-11-17T21:25:54.860Z,114926.56
2022-11-17T21:28:21.889Z,114926.56
2022-11-17T21:30:49.198Z,114926.56
2022-11-17T21:33:16.337Z,114926.56
2022-11-17T21:35:43.983Z,114926.56
2022-11-17T21:38:11.193Z,114926.56
2022-11-17T21:40:39.477Z,114926.56
2022-11-17T21:43:06.510Z,114926.56
2022-11-17T21:45:35.527Z,114926.56
2022-11-17T21:48:02.845Z,114926.56
2022-11-17T21:50:30.034Z,114926.56
2022-11-17T21:52:57.577Z,114926.56
2022-11-17T21:55:24.755Z,114926.56
2022-11-17T21:57:51.855Z,114926.56
2022-11-17T22:00:19.281Z,114926.56
2022-11-17T22:02:46.384Z,114926.56
2022-11-17T22:05:13.486Z,114926.56
2022-11-17T22:07:40.581Z,114926.56
2022-11-17T22:10:07.877Z,114926.56
2022-11-17T22:12:35.132Z,114926.56
2022-11-17T22:15:05.092Z,114926.56
2022-11-17T22:17:36.488Z,114926.56
2022-11-17T22:20:04.083Z,114926.56
2022-11-17T22:22:31.798Z,114926.56
2022-11-17T22:25:07.295Z,114926.56
2022-11-17T22:27:45.811Z,114926.56
2022-11-17T22:30:13.288Z,114926.56
2022-11-17T22:32:45.190Z,114926.56
2022-11-17T22:35:13.375Z,114926.56
2022-11-17T22:37:41.404Z,114926.56
2022-11-17T22:40:08.507Z,114926.56
2022-11-17T22:42:37.531Z,114926.56
2022-11-17T22:45:04.693Z,114926.56
2022-11-17T22:47:32.072Z,114926.56
2022-11-17T22:49:59.149Z,114926.56
2022-11-17T22:52:26.181Z,114926.56
2022-11-17T22:54:53.382Z,114926.56
2022-11-17T22:57:20.444Z,114926.56
2022-11-17T22:59:47.543Z,114926.56
2022-11-17T23:02:14.713Z,114926.56
2022-11-17T23:04:42.293Z,114926.56
2022-11-17T23:07:09.487Z,114926.56
2022-11-17T23:09:36.673Z,114926.56
2022-11-17T23:12:03.780Z,114926.56
2022-11-17T23:14:30.940Z,114926.56
2022-11-17T23:16:57.995Z,114926.56
2022-11-17T23:19:25.029Z,114926.56
2022-11-17T23:21:52.098Z,114926.56
2022-11-17T23:24:19.135Z,114926.56
2022-11-17T23:26:46.276Z,114926.56
2022-11-17T23:29:13.877Z,114926.56
2022-11-17T23:31:42.273Z,114926.56
2022-11-17T23:34:10.205Z,114926.56
2022-11-17T23:36:37.256Z,114926.56
2022-11-17T23:39:04.434Z,114926.56
2022-11-17T23:41:33.441Z,114926.56
2022-11-17T23:44:00.746Z,114926.56
2022-11-17T23:46:28.053Z,114926.56
2022-11-17T23:48:56.200Z,114926.56
2022-11-17T23:51:24.868Z,114926.56
2022-11-17T23:53:52.082Z,114926.56
2022-11-17T23:56:20.630Z,114926.56
2022-11-17T23:58:48.075Z,114926.56
